Location Greenlaw, NA, UK

ob NPTOHCUK 281730Z AUTO 13004G08KT CLR CLR 09/04 A2994 RMK SLPNO 

2017.04.28 1730 UTC
Wind from the SE (134 degrees) at 5 MPH (4 KT) gusting to 9 MPH (8 KT)
Visibility    Mile(s)
Weather: CLR
Sky Conditions  clear
Temperature 48.7 F (9 C)
Dew Point 38.3 F (4 C)
Relative Humidity 67%
Pressure   29.943 in. Hg (1014 hPa)
Rain  0.00 in.
Daily Rain  in.

Station Name  New Palace Theatre Organ Heritage Centre
Longitude, Latitude  -2.463611, 55.706389
Elevation 525
Station URL http://www.nptohc.co.uk/weather
Software Type WeatherDisplay:10.37P